sensor_id;sensor_type;location;lat;lon;timestamp;temperature;humidity
546;DHT22;259;53.304;9.816;2023-08-12T00:00:21;22.90;98.40
546;DHT22;259;53.304;9.816;2023-08-12T00:02:47;22.90;98.40
546;DHT22;259;53.304;9.816;2023-08-12T00:05:13;22.90;98.40
546;DHT22;259;53.304;9.816;2023-08-12T00:07:40;22.90;98.40
546;DHT22;259;53.304;9.816;2023-08-12T00:10:10;22.90;98.40
546;DHT22;259;53.304;9.816;2023-08-12T00:12:37;22.90;98.40
546;DHT22;259;53.304;9.816;2023-08-12T00:15:04;22.90;98.40
546;DHT22;259;53.304;9.816;2023-08-12T00:17:32;22.90;98.40
546;DHT22;259;53.304;9.816;2023-08-12T00:19:58;22.90;98.40
546;DHT22;259;53.304;9.816;2023-08-12T00:22:24;22.80;98.40
546;DHT22;259;53.304;9.816;2023-08-12T00:24:51;22.80;98.40
546;DHT22;259;53.304;9.816;2023-08-12T00:27:17;22.80;98.40
546;DHT22;259;53.304;9.816;2023-08-12T00:29:43;22.80;98.40
546;DHT22;259;53.304;9.816;2023-08-12T00:32:09;22.80;98.40
546;DHT22;259;53.304;9.816;2023-08-12T00:34:36;22.80;98.40
546;DHT22;259;53.304;9.816;2023-08-12T00:37:01;22.80;98.40
546;DHT22;259;53.304;9.816;2023-08-12T00:39:27;22.80;98.40
546;DHT22;259;53.304;9.816;2023-08-12T00:41:53;22.80;98.40
546;DHT22;259;53.304;9.816;2023-08-12T00:44:18;22.80;98.40
546;DHT22;259;53.304;9.816;2023-08-12T00:46:44;22.70;98.40
546;DHT22;259;53.304;9.816;2023-08-12T00:49:11;22.80;98.80
546;DHT22;259;53.304;9.816;2023-08-12T00:51:39;22.70;98.40
546;DHT22;259;53.304;9.816;2023-08-12T00:54:08;22.70;98.40
546;DHT22;259;53.304;9.816;2023-08-12T00:56:36;22.70;98.40
546;DHT22;259;53.304;9.816;2023-08-12T00:59:04;22.70;98.40
546;DHT22;259;53.304;9.816;2023-08-12T01:01:32;22.70;98.40
546;DHT22;259;53.304;9.816;2023-08-12T01:03:59;22.70;98.40
546;DHT22;259;53.304;9.816;2023-08-12T01:06:25;22.70;98.40
546;DHT22;259;53.304;9.816;2023-08-12T01:08:51;22.60;98.40
546;DHT22;259;53.304;9.816;2023-08-12T01:11:24;22.60;98.50
546;DHT22;259;53.304;9.816;2023-08-12T01:14:12;22.60;98.50
546;DHT22;259;53.304;9.816;2023-08-12T01:16:44;22.60;98.50
546;DHT22;259;53.304;9.816;2023-08-12T01:19:29;22.60;98.50
546;DHT22;259;53.304;9.816;2023-08-12T01:22:01;22.60;98.50
546;DHT22;259;53.304;9.816;2023-08-12T01:24:34;22.60;98.50
546;DHT22;259;53.304;9.816;2023-08-12T01:27:01;22.60;98.50
546;DHT22;259;53.304;9.816;2023-08-12T01:29:27;22.60;98.50
546;DHT22;259;53.304;9.816;2023-08-12T01:32:01;22.60;98.50
546;DHT22;259;53.304;9.816;2023-08-12T01:34:57;22.60;98.50
546;DHT22;259;53.304;9.816;2023-08-12T01:37:28;22.60;98.50
546;DHT22;259;53.304;9.816;2023-08-12T01:39:55;22.50;98.50
546;DHT22;259;53.304;9.816;2023-08-12T01:42:23;22.50;98.50
546;DHT22;259;53.304;9.816;2023-08-12T01:44:49;22.50;98.50
546;DHT22;259;53.304;9.816;2023-08-12T01:47:15;22.50;98.50
546;DHT22;259;53.304;9.816;2023-08-12T01:49:41;22.50;98.50
546;DHT22;259;53.304;9.816;2023-08-12T01:52:07;22.50;98.50
546;DHT22;259;53.304;9.816;2023-08-12T01:54:33;22.50;98.50
546;DHT22;259;53.304;9.816;2023-08-12T01:57:04;22.50;98.50
546;DHT22;259;53.304;9.816;2023-08-12T01:59:31;22.50;98.50
546;DHT22;259;53.304;9.816;2023-08-12T02:01:58;22.50;98.60
546;DHT22;259;53.304;9.816;2023-08-12T02:04:24;22.40;98.50
546;DHT22;259;53.304;9.816;2023-08-12T02:06:51;22.40;98.50
546;DHT22;259;53.304;9.816;2023-08-12T02:09:16;22.40;98.50
546;DHT22;259;53.304;9.816;2023-08-12T02:11:42;22.40;98.50
546;DHT22;259;53.304;9.816;2023-08-12T02:14:08;22.40;98.50
546;DHT22;259;53.304;9.816;2023-08-12T02:16:33;22.40;98.50
546;DHT22;259;53.304;9.816;2023-08-12T02:18:59;22.40;98.50
546;DHT22;259;53.304;9.816;2023-08-12T02:21:25;22.40;98.60
546;DHT22;259;53.304;9.816;2023-08-12T02:23:51;22.40;98.60
546;DHT22;259;53.304;9.816;2023-08-12T02:26:16;22.40;98.60
546;DHT22;259;53.304;9.816;2023-08-12T02:28:42;22.40;98.60
546;DHT22;259;53.304;9.816;2023-08-12T02:31:08;22.40;98.60
546;DHT22;259;53.304;9.816;2023-08-12T02:33:33;22.40;98.60
546;DHT22;259;53.304;9.816;2023-08-12T02:35:59;22.30;98.60
546;DHT22;259;53.304;9.816;2023-08-12T02:38:25;22.30;98.60
546;DHT22;259;53.304;9.816;2023-08-12T02:40:50;22.30;98.60
546;DHT22;259;53.304;9.816;2023-08-12T02:43:16;22.30;98.60
546;DHT22;259;53.304;9.816;2023-08-12T02:45:43;22.30;98.60
546;DHT22;259;53.304;9.816;2023-08-12T02:48:10;22.30;98.60
546;DHT22;259;53.304;9.816;2023-08-12T02:50:37;22.30;98.60
546;DHT22;259;53.304;9.816;2023-08-12T02:53:04;22.30;98.60
546;DHT22;259;53.304;9.816;2023-08-12T02:55:30;22.30;98.60
546;DHT22;259;53.304;9.816;2023-08-12T02:57:57;22.30;98.70
546;DHT22;259;53.304;9.816;2023-08-12T03:00:26;22.30;98.70
546;DHT22;259;53.304;9.816;2023-08-12T03:02:53;22.20;98.60
546;DHT22;259;53.304;9.816;2023-08-12T03:05:19;22.20;98.70
546;DHT22;259;53.304;9.816;2023-08-12T03:07:45;22.20;98.70
546;DHT22;259;53.304;9.816;2023-08-12T03:10:11;22.20;98.70
546;DHT22;259;53.304;9.816;2023-08-12T03:12:37;22.20;98.70
546;DHT22;259;53.304;9.816;2023-08-12T03:15:05;22.20;98.70
546;DHT22;259;53.304;9.816;2023-08-12T03:17:31;22.20;98.70
546;DHT22;259;53.304;9.816;2023-08-12T03:19:58;22.20;98.80
546;DHT22;259;53.304;9.816;2023-08-12T03:22:27;22.20;98.80
546;DHT22;259;53.304;9.816;2023-08-12T03:24:53;22.20;98.80
546;DHT22;259;53.304;9.816;2023-08-12T03:27:19;22.20;98.80
546;DHT22;259;53.304;9.816;2023-08-12T03:29:45;22.10;99.10
546;DHT22;259;53.304;9.816;2023-08-12T03:32:10;22.10;98.80
546;DHT22;259;53.304;9.816;2023-08-12T03:34:36;22.10;98.80
546;DHT22;259;53.304;9.816;2023-08-12T03:37:02;22.10;98.80
546;DHT22;259;53.304;9.816;2023-08-12T03:39:27;22.10;98.80
546;DHT22;259;53.304;9.816;2023-08-12T03:41:53;22.10;98.80
546;DHT22;259;53.304;9.816;2023-08-12T03:44:19;22.10;98.80
546;DHT22;259;53.304;9.816;2023-08-12T03:46:44;22.10;98.90
546;DHT22;259;53.304;9.816;2023-08-12T03:49:10;22.10;98.90
546;DHT22;259;53.304;9.816;2023-08-12T03:51:36;22.10;98.90
546;DHT22;259;53.304;9.816;2023-08-12T03:54:02;22.10;98.90
546;DHT22;259;53.304;9.816;2023-08-12T03:56:28;22.10;98.90
546;DHT22;259;53.304;9.816;2023-08-12T03:58:53;22.10;98.90
546;DHT22;259;53.304;9.816;2023-08-12T04:01:19;22.10;99.00
546;DHT22;259;53.304;9.816;2023-08-12T04:03:45;22.10;99.00
546;DHT22;259;53.304;9.816;2023-08-12T04:06:10;22.00;98.90
546;DHT22;259;53.304;9.816;2023-08-12T04:08:36;22.00;98.90
546;DHT22;259;53.304;9.816;2023-08-12T04:11:02;22.00;98.90
546;DHT22;259;53.304;9.816;2023-08-12T04:13:28;22.00;99.00
546;DHT22;259;53.304;9.816;2023-08-12T04:15:53;22.00;99.00
546;DHT22;259;53.304;9.816;2023-08-12T04:18:19;22.00;99.00
546;DHT22;259;53.304;9.816;2023-08-12T04:20:46;22.00;99.00
546;DHT22;259;53.304;9.816;2023-08-12T04:23:13;22.00;99.00
546;DHT22;259;53.304;9.816;2023-08-12T04:25:38;21.90;99.00
546;DHT22;259;53.304;9.816;2023-08-12T04:28:04;21.90;99.30
546;DHT22;259;53.304;9.816;2023-08-12T04:30:30;21.90;99.00
546;DHT22;259;53.304;9.816;2023-08-12T04:32:56;21.90;99.00
546;DHT22;259;53.304;9.816;2023-08-12T04:35:22;21.90;99.00
546;DHT22;259;53.304;9.816;2023-08-12T04:37:47;21.90;99.00
546;DHT22;259;53.304;9.816;2023-08-12T04:40:13;21.90;98.90
546;DHT22;259;53.304;9.816;2023-08-12T04:42:39;21.90;98.90
546;DHT22;259;53.304;9.816;2023-08-12T04:45:05;21.90;99.00
546;DHT22;259;53.304;9.816;2023-08-12T04:47:31;21.90;99.00
546;DHT22;259;53.304;9.816;2023-08-12T04:49:57;21.90;98.90
546;DHT22;259;53.304;9.816;2023-08-12T04:52:23;21.90;99.00
546;DHT22;259;53.304;9.816;2023-08-12T04:54:48;21.90;99.00
546;DHT22;259;53.304;9.816;2023-08-12T04:57:14;21.90;99.00
546;DHT22;259;53.304;9.816;2023-08-12T04:59:40;21.90;99.00
546;DHT22;259;53.304;9.816;2023-08-12T05:02:06;21.90;99.00
546;DHT22;259;53.304;9.816;2023-08-12T05:04:32;21.90;99.10
546;DHT22;259;53.304;9.816;2023-08-12T05:06:57;21.90;99.10
546;DHT22;259;53.304;9.816;2023-08-12T05:09:23;21.90;99.20
546;DHT22;259;53.304;9.816;2023-08-12T05:11:49;21.90;99.20
546;DHT22;259;53.304;9.816;2023-08-12T05:14:14;21.90;99.20
546;DHT22;259;53.304;9.816;2023-08-12T05:16:40;21.80;99.20
546;DHT22;259;53.304;9.816;2023-08-12T05:19:05;21.90;99.20
546;DHT22;259;53.304;9.816;2023-08-12T05:21:31;21.80;99.20
546;DHT22;259;53.304;9.816;2023-08-12T05:23:57;21.80;99.20
546;DHT22;259;53.304;9.816;2023-08-12T05:26:22;21.80;99.20
546;DHT22;259;53.304;9.816;2023-08-12T05:28:48;21.80;99.20
546;DHT22;259;53.304;9.816;2023-08-12T05:31:14;21.80;99.20
546;DHT22;259;53.304;9.816;2023-08-12T05:33:39;21.80;99.20
546;DHT22;259;53.304;9.816;2023-08-12T05:36:05;21.80;99.20
546;DHT22;259;53.304;9.816;2023-08-12T05:38:31;21.80;99.30
546;DHT22;259;53.304;9.816;2023-08-12T05:40:56;21.80;99.30
546;DHT22;259;53.304;9.816;2023-08-12T05:43:22;21.80;99.40
546;DHT22;259;53.304;9.816;2023-08-12T05:45:48;21.80;99.40
546;DHT22;259;53.304;9.816;2023-08-12T05:48:14;21.80;99.40
546;DHT22;259;53.304;9.816;2023-08-12T05:50:39;21.80;99.40
546;DHT22;259;53.304;9.816;2023-08-12T05:53:05;21.80;99.50
546;DHT22;259;53.304;9.816;2023-08-12T05:55:33;21.70;99.50
546;DHT22;259;53.304;9.816;2023-08-12T05:58:00;21.70;99.50
546;DHT22;259;53.304;9.816;2023-08-12T06:00:26;21.70;99.50
546;DHT22;259;53.304;9.816;2023-08-12T06:02:51;21.70;99.50
546;DHT22;259;53.304;9.816;2023-08-12T06:05:17;21.70;99.50
546;DHT22;259;53.304;9.816;2023-08-12T06:07:43;21.70;99.60
546;DHT22;259;53.304;9.816;2023-08-12T06:10:09;21.70;99.60
546;DHT22;259;53.304;9.816;2023-08-12T06:12:35;21.70;99.70
546;DHT22;259;53.304;9.816;2023-08-12T06:15:01;21.70;99.70
546;DHT22;259;53.304;9.816;2023-08-12T06:17:26;21.70;99.80
546;DHT22;259;53.304;9.816;2023-08-12T06:19:52;21.70;99.90
546;DHT22;259;53.304;9.816;2023-08-12T06:22:18;21.70;99.90
546;DHT22;259;53.304;9.816;2023-08-12T06:24:43;21.70;99.90
546;DHT22;259;53.304;9.816;2023-08-12T06:27:09;21.70;99.90
546;DHT22;259;53.304;9.816;2023-08-12T06:29:35;21.70;99.90
546;DHT22;259;53.304;9.816;2023-08-12T06:32:00;21.70;99.90
546;DHT22;259;53.304;9.816;2023-08-12T06:34:26;21.70;99.90
546;DHT22;259;53.304;9.816;2023-08-12T06:36:52;21.70;99.90
546;DHT22;259;53.304;9.816;2023-08-12T06:39:17;21.70;99.90
546;DHT22;259;53.304;9.816;2023-08-12T06:41:43;21.70;99.90
546;DHT22;259;53.304;9.816;2023-08-12T06:44:09;21.70;99.90
546;DHT22;259;53.304;9.816;2023-08-12T06:46:34;21.70;99.90
546;DHT22;259;53.304;9.816;2023-08-12T06:49:00;21.70;99.90
546;DHT22;259;53.304;9.816;2023-08-12T06:51:26;21.70;99.90
546;DHT22;259;53.304;9.816;2023-08-12T06:53:51;21.70;99.90
546;DHT22;259;53.304;9.816;2023-08-12T06:56:17;21.70;99.90
546;DHT22;259;53.304;9.816;2023-08-12T06:58:43;21.60;99.90
546;DHT22;259;53.304;9.816;2023-08-12T07:01:08;21.60;99.90
546;DHT22;259;53.304;9.816;2023-08-12T07:03:34;21.60;99.90
546;DHT22;259;53.304;9.816;2023-08-12T07:06:00;21.60;99.90
546;DHT22;259;53.304;9.816;2023-08-12T07:08:25;21.60;99.90
546;DHT22;259;53.304;9.816;2023-08-12T07:10:52;21.60;99.90
546;DHT22;259;53.304;9.816;2023-08-12T07:13:18;21.60;99.90
546;DHT22;259;53.304;9.816;2023-08-12T07:15:44;21.60;99.90
546;DHT22;259;53.304;9.816;2023-08-12T07:18:09;21.60;99.90
546;DHT22;259;53.304;9.816;2023-08-12T07:20:35;21.60;99.90
546;DHT22;259;53.304;9.816;2023-08-12T07:23:01;21.60;99.90
546;DHT22;259;53.304;9.816;2023-08-12T07:25:26;21.60;99.90
546;DHT22;259;53.304;9.816;2023-08-12T07:27:52;21.60;99.90
546;DHT22;259;53.304;9.816;2023-08-12T07:30:18;21.60;99.90
546;DHT22;259;53.304;9.816;2023-08-12T07:32:43;21.60;99.90
546;DHT22;259;53.304;9.816;2023-08-12T07:35:09;21.60;99.90
546;DHT22;259;53.304;9.816;2023-08-12T07:37:35;21.60;99.90
546;DHT22;259;53.304;9.816;2023-08-12T07:40:01;21.60;99.90
546;DHT22;259;53.304;9.816;2023-08-12T07:42:28;21.60;99.90
546;DHT22;259;53.304;9.816;2023-08-12T07:44:54;21.60;99.90
546;DHT22;259;53.304;9.816;2023-08-12T07:47:19;21.60;99.90
546;DHT22;259;53.304;9.816;2023-08-12T07:49:52;21.60;99.90
546;DHT22;259;53.304;9.816;2023-08-12T07:52:18;21.60;99.90
546;DHT22;259;53.304;9.816;2023-08-12T07:54:43;21.60;99.90
546;DHT22;259;53.304;9.816;2023-08-12T07:57:09;21.60;99.90
546;DHT22;259;53.304;9.816;2023-08-12T07:59:35;21.60;99.90
546;DHT22;259;53.304;9.816;2023-08-12T08:02:00;21.60;99.90
546;DHT22;259;53.304;9.816;2023-08-12T08:04:26;21.60;99.90
546;DHT22;259;53.304;9.816;2023-08-12T08:06:52;21.60;99.90
546;DHT22;259;53.304;9.816;2023-08-12T08:09:17;21.60;99.90
546;DHT22;259;53.304;9.816;2023-08-12T08:11:43;21.60;99.90
546;DHT22;259;53.304;9.816;2023-08-12T08:14:09;21.60;99.90
546;DHT22;259;53.304;9.816;2023-08-12T08:16:34;21.60;99.90
546;DHT22;259;53.304;9.816;2023-08-12T08:19:00;21.60;99.90
546;DHT22;259;53.304;9.816;2023-08-12T08:21:26;21.60;99.90
546;DHT22;259;53.304;9.816;2023-08-12T08:23:51;21.60;99.90
546;DHT22;259;53.304;9.816;2023-08-12T08:26:17;21.60;99.90
546;DHT22;259;53.304;9.816;2023-08-12T08:28:44;21.60;99.90
546;DHT22;259;53.304;9.816;2023-08-12T08:31:09;21.60;99.90
546;DHT22;259;53.304;9.816;2023-08-12T08:33:35;21.60;99.90
546;DHT22;259;53.304;9.816;2023-08-12T08:36:01;21.60;99.90
546;DHT22;259;53.304;9.816;2023-08-12T08:38:27;21.60;99.90
546;DHT22;259;53.304;9.816;2023-08-12T08:40:52;21.60;99.90
546;DHT22;259;53.304;9.816;2023-08-12T08:43:21;21.60;99.90
546;DHT22;259;53.304;9.816;2023-08-12T08:45:53;21.60;99.90
546;DHT22;259;53.304;9.816;2023-08-12T08:48:19;21.60;99.90
546;DHT22;259;53.304;9.816;2023-08-12T08:50:47;21.60;99.90
546;DHT22;259;53.304;9.816;2023-08-12T08:53:14;21.60;99.90
546;DHT22;259;53.304;9.816;2023-08-12T08:55:41;21.60;99.90
546;DHT22;259;53.304;9.816;2023-08-12T08:58:07;21.60;99.90
546;DHT22;259;53.304;9.816;2023-08-12T09:00:33;21.60;99.90
546;DHT22;259;53.304;9.816;2023-08-12T09:02:59;21.60;99.90
546;DHT22;259;53.304;9.816;2023-08-12T09:05:25;21.60;99.90
546;DHT22;259;53.304;9.816;2023-08-12T09:07:54;21.60;99.90
546;DHT22;259;53.304;9.816;2023-08-12T09:10:21;21.60;99.90
546;DHT22;259;53.304;9.816;2023-08-12T09:12:47;21.60;99.90
546;DHT22;259;53.304;9.816;2023-08-12T09:15:13;21.60;99.90
546;DHT22;259;53.304;9.816;2023-08-12T09:17:39;21.60;99.90
546;DHT22;259;53.304;9.816;2023-08-12T09:20:05;21.60;99.90
546;DHT22;259;53.304;9.816;2023-08-12T09:22:37;21.70;99.90
546;DHT22;259;53.304;9.816;2023-08-12T09:25:04;21.70;99.90
546;DHT22;259;53.304;9.816;2023-08-12T09:27:31;21.70;99.90
546;DHT22;259;53.304;9.816;2023-08-12T09:29:58;21.70;99.90
546;DHT22;259;53.304;9.816;2023-08-12T09:32:24;21.70;99.90
546;DHT22;259;53.304;9.816;2023-08-12T09:34:54;21.70;99.90
546;DHT22;259;53.304;9.816;2023-08-12T09:37:22;21.70;99.90
546;DHT22;259;53.304;9.816;2023-08-12T09:39:52;21.70;99.90
546;DHT22;259;53.304;9.816;2023-08-12T09:42:18;21.70;99.90
546;DHT22;259;53.304;9.816;2023-08-12T09:44:44;21.70;99.90
546;DHT22;259;53.304;9.816;2023-08-12T09:47:10;21.70;99.90
546;DHT22;259;53.304;9.816;2023-08-12T09:49:38;21.70;99.90
546;DHT22;259;53.304;9.816;2023-08-12T09:52:05;21.70;99.90
546;DHT22;259;53.304;9.816;2023-08-12T09:54:32;21.70;99.90
546;DHT22;259;53.304;9.816;2023-08-12T09:56:59;21.70;99.90
546;DHT22;259;53.304;9.816;2023-08-12T09:59:34;21.70;99.90
546;DHT22;259;53.304;9.816;2023-08-12T10:02:03;21.70;99.90
546;DHT22;259;53.304;9.816;2023-08-12T10:04:41;21.80;99.90
546;DHT22;259;53.304;9.816;2023-08-12T10:07:11;21.80;99.90
546;DHT22;259;53.304;9.816;2023-08-12T10:09:40;21.80;99.90
546;DHT22;259;53.304;9.816;2023-08-12T10:12:07;21.80;99.90
546;DHT22;259;53.304;9.816;2023-08-12T10:14:34;21.80;99.90
546;DHT22;259;53.304;9.816;2023-08-12T10:17:00;21.80;99.90
546;DHT22;259;53.304;9.816;2023-08-12T10:19:26;21.80;99.90
546;DHT22;259;53.304;9.816;2023-08-12T10:21:56;21.80;99.90
546;DHT22;259;53.304;9.816;2023-08-12T10:24:26;21.80;99.90
546;DHT22;259;53.304;9.816;2023-08-12T10:26:54;21.80;99.90
546;DHT22;259;53.304;9.816;2023-08-12T10:29:20;21.80;99.90
546;DHT22;259;53.304;9.816;2023-08-12T10:31:48;21.80;99.90
546;DHT22;259;53.304;9.816;2023-08-12T10:34:22;21.80;99.90
546;DHT22;259;53.304;9.816;2023-08-12T10:36:54;21.80;99.90
546;DHT22;259;53.304;9.816;2023-08-12T10:39:27;21.90;99.90
546;DHT22;259;53.304;9.816;2023-08-12T10:41:57;21.90;99.90
546;DHT22;259;53.304;9.816;2023-08-12T10:44:38;21.90;99.90
546;DHT22;259;53.304;9.816;2023-08-12T10:47:10;21.90;99.90
546;DHT22;259;53.304;9.816;2023-08-12T10:49:42;21.90;99.90
546;DHT22;259;53.304;9.816;2023-08-12T10:52:28;21.90;99.90
546;DHT22;259;53.304;9.816;2023-08-12T10:54:55;21.90;99.90
546;DHT22;259;53.304;9.816;2023-08-12T10:57:49;21.90;99.90
546;DHT22;259;53.304;9.816;2023-08-12T11:00:24;21.80;99.90
546;DHT22;259;53.304;9.816;2023-08-12T11:02:55;21.90;99.90
546;DHT22;259;53.304;9.816;2023-08-12T11:05:23;21.90;99.90
546;DHT22;259;53.304;9.816;2023-08-12T11:07:58;21.90;99.90
546;DHT22;259;53.304;9.816;2023-08-12T11:10:27;21.90;99.90
546;DHT22;259;53.304;9.816;2023-08-12T11:12:56;21.80;99.90
546;DHT22;259;53.304;9.816;2023-08-12T11:15:33;21.80;99.90
546;DHT22;259;53.304;9.816;2023-08-12T11:18:13;21.90;99.90
546;DHT22;259;53.304;9.816;2023-08-12T11:20:40;21.80;99.90
546;DHT22;259;53.304;9.816;2023-08-12T11:23:07;21.80;99.90
546;DHT22;259;53.304;9.816;2023-08-12T11:25:34;21.80;99.90
546;DHT22;259;53.304;9.816;2023-08-12T11:28:01;21.80;99.90
546;DHT22;259;53.304;9.816;2023-08-12T11:30:27;21.80;99.90
546;DHT22;259;53.304;9.816;2023-08-12T11:32:54;21.80;99.90
546;DHT22;259;53.304;9.816;2023-08-12T11:35:22;21.80;99.90
546;DHT22;259;53.304;9.816;2023-08-12T11:37:50;21.90;99.90
546;DHT22;259;53.304;9.816;2023-08-12T11:40:19;21.80;99.90
546;DHT22;259;53.304;9.816;2023-08-12T11:42:46;21.80;99.90
546;DHT22;259;53.304;9.816;2023-08-12T11:45:15;21.80;99.90
546;DHT22;259;53.304;9.816;2023-08-12T11:47:42;21.80;99.90
546;DHT22;259;53.304;9.816;2023-08-12T11:50:10;21.90;99.90
546;DHT22;259;53.304;9.816;2023-08-12T11:52:37;21.90;99.90
546;DHT22;259;53.304;9.816;2023-08-12T11:55:04;21.90;99.90
546;DHT22;259;53.304;9.816;2023-08-12T11:57:30;21.90;99.90
546;DHT22;259;53.304;9.816;2023-08-12T12:00:03;21.90;99.90
546;DHT22;259;53.304;9.816;2023-08-12T12:05:11;21.90;99.90
546;DHT22;259;53.304;9.816;2023-08-12T12:07:37;21.90;99.90
546;DHT22;259;53.304;9.816;2023-08-12T12:10:04;21.90;99.90
546;DHT22;259;53.304;9.816;2023-08-12T12:12:36;21.90;99.90
546;DHT22;259;53.304;9.816;2023-08-12T12:15:03;21.90;99.90
546;DHT22;259;53.304;9.816;2023-08-12T12:17:29;21.90;99.90
546;DHT22;259;53.304;9.816;2023-08-12T12:19:57;21.90;99.90
546;DHT22;259;53.304;9.816;2023-08-12T12:22:30;21.90;99.90
546;DHT22;259;53.304;9.816;2023-08-12T12:24:59;21.90;99.90
546;DHT22;259;53.304;9.816;2023-08-12T12:27:26;21.90;99.90
546;DHT22;259;53.304;9.816;2023-08-12T12:29:53;21.90;99.90
546;DHT22;259;53.304;9.816;2023-08-12T12:32:19;21.90;99.90
546;DHT22;259;53.304;9.816;2023-08-12T12:34:46;21.90;99.90
546;DHT22;259;53.304;9.816;2023-08-12T12:37:12;21.90;99.90
546;DHT22;259;53.304;9.816;2023-08-12T12:39:39;21.90;99.90
546;DHT22;259;53.304;9.816;2023-08-12T12:42:05;21.90;99.90
546;DHT22;259;53.304;9.816;2023-08-12T12:44:31;21.90;99.90
546;DHT22;259;53.304;9.816;2023-08-12T12:46:57;21.90;99.90
546;DHT22;259;53.304;9.816;2023-08-12T12:49:23;21.90;99.90
546;DHT22;259;53.304;9.816;2023-08-12T12:51:49;21.90;99.90
546;DHT22;259;53.304;9.816;2023-08-12T12:54:15;21.90;99.90
546;DHT22;259;53.304;9.816;2023-08-12T12:56:41;21.90;99.90
546;DHT22;259;53.304;9.816;2023-08-12T12:59:07;21.90;99.90
546;DHT22;259;53.304;9.816;2023-08-12T13:01:33;21.90;99.90
546;DHT22;259;53.304;9.816;2023-08-12T13:03:58;21.90;99.90
546;DHT22;259;53.304;9.816;2023-08-12T13:06:24;21.90;99.90
546;DHT22;259;53.304;9.816;2023-08-12T13:08:50;21.90;99.90
546;DHT22;259;53.304;9.816;2023-08-12T13:11:16;21.90;99.90
546;DHT22;259;53.304;9.816;2023-08-12T13:13:41;21.90;99.90
546;DHT22;259;53.304;9.816;2023-08-12T13:16:07;21.90;99.90
546;DHT22;259;53.304;9.816;2023-08-12T13:18:36;21.90;99.90
546;DHT22;259;53.304;9.816;2023-08-12T13:21:02;21.90;99.90
546;DHT22;259;53.304;9.816;2023-08-12T13:23:27;22.00;99.90
546;DHT22;259;53.304;9.816;2023-08-12T13:25:53;21.90;99.90
546;DHT22;259;53.304;9.816;2023-08-12T13:28:19;22.00;99.90
546;DHT22;259;53.304;9.816;2023-08-12T13:30:45;22.00;99.90
546;DHT22;259;53.304;9.816;2023-08-12T13:33:11;22.00;99.90
546;DHT22;259;53.304;9.816;2023-08-12T13:35:37;22.00;99.90
546;DHT22;259;53.304;9.816;2023-08-12T13:38:03;22.00;99.90
546;DHT22;259;53.304;9.816;2023-08-12T13:40:29;22.00;99.90
546;DHT22;259;53.304;9.816;2023-08-12T13:42:55;22.00;99.90
546;DHT22;259;53.304;9.816;2023-08-12T13:45:21;22.00;99.90
546;DHT22;259;53.304;9.816;2023-08-12T13:47:46;22.00;99.90
546;DHT22;259;53.304;9.816;2023-08-12T13:50:12;22.00;99.90
546;DHT22;259;53.304;9.816;2023-08-12T13:52:39;22.00;99.90
546;DHT22;259;53.304;9.816;2023-08-12T13:55:05;22.00;99.90
546;DHT22;259;53.304;9.816;2023-08-12T13:57:31;22.00;99.90
546;DHT22;259;53.304;9.816;2023-08-12T13:59:57;22.00;99.90
546;DHT22;259;53.304;9.816;2023-08-12T14:02:23;22.00;99.90
546;DHT22;259;53.304;9.816;2023-08-12T14:04:50;22.00;99.90
546;DHT22;259;53.304;9.816;2023-08-12T14:07:15;22.00;99.90
546;DHT22;259;53.304;9.816;2023-08-12T14:09:41;22.00;99.90
546;DHT22;259;53.304;9.816;2023-08-12T14:12:07;22.00;99.90
546;DHT22;259;53.304;9.816;2023-08-12T14:14:33;22.00;99.90
546;DHT22;259;53.304;9.816;2023-08-12T14:16:59;22.00;99.90
546;DHT22;259;53.304;9.816;2023-08-12T14:19:24;22.00;99.90
546;DHT22;259;53.304;9.816;2023-08-12T14:21:50;22.00;99.90
546;DHT22;259;53.304;9.816;2023-08-12T14:24:16;22.00;99.90
546;DHT22;259;53.304;9.816;2023-08-12T14:26:41;22.00;99.90
546;DHT22;259;53.304;9.816;2023-08-12T14:29:07;22.00;99.90
546;DHT22;259;53.304;9.816;2023-08-12T14:31:33;22.00;99.90
546;DHT22;259;53.304;9.816;2023-08-12T14:33:59;22.00;99.90
546;DHT22;259;53.304;9.816;2023-08-12T14:36:26;22.00;99.90
546;DHT22;259;53.304;9.816;2023-08-12T14:38:52;22.00;99.90
546;DHT22;259;53.304;9.816;2023-08-12T14:41:18;22.00;99.90
546;DHT22;259;53.304;9.816;2023-08-12T14:43:44;22.00;99.90
546;DHT22;259;53.304;9.816;2023-08-12T14:46:09;22.00;99.90
546;DHT22;259;53.304;9.816;2023-08-12T14:48:35;22.00;99.90
546;DHT22;259;53.304;9.816;2023-08-12T14:51:01;22.00;99.90
546;DHT22;259;53.304;9.816;2023-08-12T14:53:27;22.00;99.90
546;DHT22;259;53.304;9.816;2023-08-12T14:55:53;22.00;99.90
546;DHT22;259;53.304;9.816;2023-08-12T14:58:18;22.00;99.90
546;DHT22;259;53.304;9.816;2023-08-12T15:00:46;22.00;99.90
546;DHT22;259;53.304;9.816;2023-08-12T15:03:12;22.00;99.90
546;DHT22;259;53.304;9.816;2023-08-12T15:05:40;22.10;99.90
546;DHT22;259;53.304;9.816;2023-08-12T15:08:06;22.10;99.90
546;DHT22;259;53.304;9.816;2023-08-12T15:10:32;22.10;99.90
546;DHT22;259;53.304;9.816;2023-08-12T15:12:58;22.10;99.90
546;DHT22;259;53.304;9.816;2023-08-12T15:15:23;22.10;99.90
546;DHT22;259;53.304;9.816;2023-08-12T15:17:49;22.20;99.90
546;DHT22;259;53.304;9.816;2023-08-12T15:20:15;22.20;99.90
546;DHT22;259;53.304;9.816;2023-08-12T15:22:40;22.20;99.90
546;DHT22;259;53.304;9.816;2023-08-12T15:25:06;22.20;99.90
546;DHT22;259;53.304;9.816;2023-08-12T15:27:33;22.30;99.90
546;DHT22;259;53.304;9.816;2023-08-12T15:29:59;22.30;99.90
546;DHT22;259;53.304;9.816;2023-08-12T15:32:26;22.40;99.90
546;DHT22;259;53.304;9.816;2023-08-12T15:34:51;22.40;99.90
546;DHT22;259;53.304;9.816;2023-08-12T15:37:17;22.40;99.90
546;DHT22;259;53.304;9.816;2023-08-12T15:39:43;22.50;99.90
546;DHT22;259;53.304;9.816;2023-08-12T15:42:09;22.50;99.90
546;DHT22;259;53.304;9.816;2023-08-12T15:44:34;22.50;99.90
546;DHT22;259;53.304;9.816;2023-08-12T15:47:00;22.50;99.90
546;DHT22;259;53.304;9.816;2023-08-12T15:49:31;22.50;99.90
546;DHT22;259;53.304;9.816;2023-08-12T15:51:58;22.50;99.90
546;DHT22;259;53.304;9.816;2023-08-12T15:54:24;22.50;99.90
546;DHT22;259;53.304;9.816;2023-08-12T15:56:49;22.50;99.90
546;DHT22;259;53.304;9.816;2023-08-12T15:59:15;22.50;99.90
546;DHT22;259;53.304;9.816;2023-08-12T16:01:41;22.50;99.90
546;DHT22;259;53.304;9.816;2023-08-12T16:04:07;22.50;99.90
546;DHT22;259;53.304;9.816;2023-08-12T16:06:33;22.50;99.90
546;DHT22;259;53.304;9.816;2023-08-12T16:08:59;22.50;99.90
546;DHT22;259;53.304;9.816;2023-08-12T16:11:24;22.50;99.90
546;DHT22;259;53.304;9.816;2023-08-12T16:13:50;22.50;99.90
546;DHT22;259;53.304;9.816;2023-08-12T16:16:16;22.50;99.90
546;DHT22;259;53.304;9.816;2023-08-12T16:18:41;22.50;99.90
546;DHT22;259;53.304;9.816;2023-08-12T16:21:07;22.50;99.90
546;DHT22;259;53.304;9.816;2023-08-12T16:23:33;22.50;99.90
546;DHT22;259;53.304;9.816;2023-08-12T16:25:59;22.50;99.90
546;DHT22;259;53.304;9.816;2023-08-12T16:28:25;22.40;99.90
546;DHT22;259;53.304;9.816;2023-08-12T16:30:52;22.40;99.90
546;DHT22;259;53.304;9.816;2023-08-12T16:33:18;22.40;99.90